createdAt,value
2019-04-14T00:02:40.454Z,6.09
2019-04-14T00:05:14.683Z,6.05
2019-04-14T00:07:44.965Z,5.93
2019-04-14T00:10:16.085Z,5.81
2019-04-14T00:12:46.949Z,5.60
2019-04-14T00:15:25.671Z,5.52
2019-04-14T00:17:47.973Z,5.63
2019-04-14T00:20:18.603Z,5.57
2019-04-14T00:22:49.220Z,5.53
2019-04-14T00:25:19.495Z,5.26
2019-04-14T00:27:49.993Z,5.51
2019-04-14T00:30:23.023Z,5.66
2019-04-14T00:32:55.624Z,5.63
2019-04-14T00:35:53.933Z,5.96
2019-04-14T00:38:34.589Z,6.06
2019-04-14T00:41:37.308Z,5.81
2019-04-14T00:44:12.433Z,5.80
2019-04-14T00:46:47.663Z,5.73
2019-04-14T00:49:17.968Z,5.74
2019-04-14T00:51:48.537Z,5.47
2019-04-14T00:54:19.631Z,5.53
2019-04-14T00:56:49.860Z,5.56
2019-04-14T00:59:20.075Z,5.66
2019-04-14T01:01:50.676Z,5.65
2019-04-14T01:04:20.847Z,5.63
2019-04-14T01:06:51.187Z,5.35
2019-04-14T01:09:21.637Z,5.52
2019-04-14T01:11:51.141Z,5.33
2019-04-14T01:14:21.271Z,5.47
2019-04-14T01:16:51.750Z,5.39
2019-04-14T01:19:22.356Z,5.59
2019-04-14T01:21:52.511Z,5.68
2019-04-14T01:24:22.824Z,5.81
2019-04-14T01:26:52.890Z,5.86
2019-04-14T01:29:23.350Z,5.85
2019-04-14T01:31:53.670Z,5.75
2019-04-14T01:34:23.816Z,5.71
2019-04-14T01:36:54.050Z,5.66
2019-04-14T01:39:24.306Z,5.55
2019-04-14T01:41:54.332Z,5.55
2019-04-14T01:44:24.224Z,5.49
2019-04-14T01:46:54.233Z,5.33
2019-04-14T01:49:24.705Z,5.25
2019-04-14T01:52:14.375Z,5.20
2019-04-14T01:54:53.776Z,5.13
2019-04-14T01:57:48.328Z,5.20
2019-04-14T02:00:40.824Z,5.10
2019-04-14T02:03:10.696Z,5.18
2019-04-14T02:05:41.297Z,5.17
2019-04-14T02:08:11.226Z,5.41
2019-04-14T02:10:41.266Z,5.51
2019-04-14T02:13:11.499Z,5.66
2019-04-14T02:15:42.068Z,5.77
2019-04-14T02:18:12.147Z,5.85
2019-04-14T02:20:42.708Z,5.90
2019-04-14T02:23:13.133Z,5.86
2019-04-14T02:25:42.988Z,5.82
2019-04-14T02:28:13.406Z,5.84
2019-04-14T02:30:54.320Z,5.67
2019-04-14T02:38:47.344Z,5.30
2019-04-14T02:41:23.470Z,5.14
2019-04-14T02:43:51.457Z,5.07
2019-04-14T02:48:53.362Z,5.14
2019-04-14T02:51:19.398Z,5.23
2019-04-14T02:54:07.268Z,5.18
2019-04-14T02:56:25.441Z,5.29
2019-04-14T02:59:02.130Z,5.35
2019-04-14T03:01:31.210Z,5.40
2019-04-14T03:04:01.512Z,5.44
2019-04-14T03:06:29.207Z,5.51
2019-04-14T03:09:07.985Z,5.57
2019-04-14T03:14:15.569Z,5.64
2019-04-14T03:16:53.987Z,5.67
2019-04-14T03:19:35.494Z,5.71
2019-04-14T03:25:06.154Z,5.26
2019-04-14T03:27:54.845Z,5.64
2019-04-14T03:36:05.531Z,5.57
2019-04-14T03:38:17.082Z,5.48
2019-04-14T03:43:13.668Z,5.42
2019-04-14T03:50:48.539Z,5.35
2019-04-14T03:53:23.419Z,5.26
2019-04-14T03:56:00.634Z,5.22
2019-04-14T03:58:27.560Z,5.22
2019-04-14T04:00:57.599Z,5.12
2019-04-14T04:03:28.219Z,5.09
2019-04-14T04:05:58.620Z,5.04
2019-04-14T04:08:29.109Z,5.10
2019-04-14T04:10:59.777Z,5.09
2019-04-14T04:13:30.239Z,5.07
2019-04-14T04:16:13.945Z,5.06
2019-04-14T04:18:51.329Z,5.07
2019-04-14T04:21:33.723Z,5.08
2019-04-14T04:24:33.539Z,5.00
2019-04-14T04:27:20.036Z,4.91
2019-04-14T04:29:59.124Z,4.84
2019-04-14T04:32:34.486Z,4.80
2019-04-14T04:35:23.914Z,4.73
2019-04-14T04:38:03.103Z,4.62
2019-04-14T04:40:33.345Z,4.44
2019-04-14T04:43:03.820Z,4.35
2019-04-14T04:45:34.126Z,4.29
2019-04-14T04:48:04.559Z,4.30
2019-04-14T04:50:35.229Z,4.30
2019-04-14T04:53:04.926Z,4.29
2019-04-14T04:55:35.156Z,4.26
2019-04-14T04:58:05.652Z,4.25
2019-04-14T05:00:35.372Z,4.25
2019-04-14T05:03:05.750Z,4.38
2019-04-14T05:06:11.675Z,4.41
2019-04-14T05:08:48.043Z,4.43
2019-04-14T05:11:34.815Z,4.45
2019-04-14T05:14:10.919Z,4.71
2019-04-14T05:16:41.771Z,4.66
2019-04-14T05:19:20.236Z,4.76
2019-04-14T05:21:43.111Z,4.73
2019-04-14T05:24:13.621Z,4.80
2019-04-14T05:26:43.838Z,4.94
2019-04-14T05:29:14.489Z,5.19
2019-04-14T05:31:44.724Z,5.30
2019-04-14T05:34:15.084Z,5.37
2019-04-14T05:36:45.374Z,5.42
2019-04-14T05:39:15.664Z,5.43
2019-04-14T05:41:57.146Z,5.44
2019-04-14T05:44:16.518Z,5.47
2019-04-14T05:46:46.969Z,5.53
2019-04-14T05:49:28.603Z,5.61
2019-04-14T05:51:48.190Z,5.61
2019-04-14T05:54:18.544Z,5.62
2019-04-14T05:56:49.309Z,5.56
2019-04-14T05:59:19.927Z,5.80
2019-04-14T06:01:49.448Z,5.78
2019-04-14T06:04:19.942Z,5.77
2019-04-14T06:06:50.542Z,5.96
2019-04-14T06:09:20.075Z,5.96
2019-04-14T06:11:49.600Z,6.13
2019-04-14T06:14:19.127Z,6.33
2019-04-14T06:16:49.694Z,6.45
2019-04-14T06:19:19.216Z,6.71
2019-04-14T06:21:48.734Z,6.72
2019-04-14T06:24:18.253Z,6.52
2019-04-14T06:26:47.768Z,6.55
2019-04-14T06:29:17.277Z,6.77
2019-04-14T06:31:59.840Z,6.64
2019-04-14T06:34:37.989Z,6.73
2019-04-14T06:37:19.055Z,6.55
2019-04-14T06:39:50.307Z,6.55
2019-04-14T06:42:19.840Z,6.91
2019-04-14T06:44:49.361Z,6.85
2019-04-14T06:47:18.873Z,7.09
2019-04-14T06:49:49.438Z,6.78
2019-04-14T06:52:19.194Z,6.48
2019-04-14T06:54:48.716Z,6.31
2019-04-14T06:57:18.242Z,6.42
2019-04-14T06:59:48.733Z,6.68
2019-04-14T07:02:18.323Z,6.96
2019-04-14T07:04:47.955Z,7.15
2019-04-14T07:07:17.472Z,7.05
2019-04-14T07:09:47.009Z,6.90
2019-04-14T07:12:16.628Z,6.90
2019-04-14T07:14:46.168Z,6.87
2019-04-14T07:17:15.761Z,6.84
2019-04-14T07:19:45.288Z,7.02
2019-04-14T07:22:14.812Z,7.07
2019-04-14T07:24:45.311Z,7.03
2019-04-14T07:27:14.844Z,6.99
2019-04-14T07:29:49.707Z,7.01
2019-04-14T07:32:36.215Z,7.08
2019-04-14T07:35:36.722Z,7.21
2019-04-14T07:38:13.248Z,7.32
2019-04-14T07:40:51.717Z,7.19
2019-04-14T07:43:37.953Z,7.43
2019-04-14T07:46:12.178Z,7.50
2019-04-14T07:48:48.123Z,7.40
2019-04-14T07:51:27.482Z,7.14
2019-04-14T07:54:00.619Z,7.14
2019-04-14T07:56:47.798Z,6.98
2019-04-14T07:59:31.112Z,7.17
2019-04-14T08:02:12.177Z,7.12
2019-04-14T08:04:49.171Z,7.39
2019-04-14T08:07:18.810Z,7.12
2019-04-14T08:09:48.387Z,7.19
2019-04-14T08:12:18.011Z,7.36
2019-04-14T08:14:47.541Z,7.56
2019-04-14T08:17:17.131Z,7.34
2019-04-14T08:19:46.668Z,7.50
2019-04-14T08:22:16.190Z,7.44
2019-04-14T08:24:45.813Z,7.57
2019-04-14T08:27:15.449Z,7.51
2019-04-14T08:29:44.978Z,7.60
2019-04-14T08:32:14.521Z,7.73
2019-04-14T08:34:44.053Z,7.88
2019-04-14T08:37:13.678Z,7.61
2019-04-14T08:39:43.214Z,7.09
2019-04-14T08:42:31.767Z,7.27
2019-04-14T08:45:08.391Z,7.34
2019-04-14T08:47:45.922Z,7.58
2019-04-14T08:50:22.101Z,7.74
2019-04-14T08:53:09.419Z,8.04
2019-04-14T08:55:47.252Z,8.21
2019-04-14T08:58:25.165Z,8.39
2019-04-14T09:01:01.755Z,8.17
2019-04-14T09:04:02.384Z,8.06
2019-04-14T09:06:44.276Z,8.46
2019-04-14T09:09:25.671Z,8.52
2019-04-14T09:11:58.754Z,8.61
2019-04-14T09:14:28.277Z,8.29
2019-04-14T09:16:57.837Z,8.56
2019-04-14T09:19:27.361Z,8.34
2019-04-14T09:21:56.980Z,8.35
2019-04-14T09:24:26.573Z,8.51
2019-04-14T09:26:56.113Z,8.78
2019-04-14T09:29:25.639Z,9.19
2019-04-14T09:31:55.199Z,9.28
2019-04-14T09:34:24.701Z,9.11
2019-04-14T09:36:54.245Z,9.00
2019-04-14T09:39:23.820Z,8.55
2019-04-14T09:41:53.587Z,8.68
2019-04-14T09:44:23.144Z,8.76
2019-04-14T09:46:52.694Z,9.29
2019-04-14T09:49:22.212Z,9.23
2019-04-14T09:51:51.753Z,9.13
2019-04-14T09:54:21.299Z,8.34
2019-04-14T09:56:50.850Z,8.55
2019-04-14T09:59:21.200Z,8.35
2019-04-14T10:01:50.748Z,9.05
2019-04-14T10:04:20.461Z,9.26
2019-04-14T10:06:49.991Z,9.13
2019-04-14T10:09:19.622Z,9.00
2019-04-14T10:11:52.536Z,8.94
2019-04-14T10:14:20.691Z,9.15
2019-04-14T10:16:50.260Z,9.31
2019-04-14T10:19:19.779Z,9.42
2019-04-14T10:21:49.338Z,9.59
2019-04-14T10:24:19.867Z,9.41
2019-04-14T10:26:49.459Z,9.07
2019-04-14T10:29:18.987Z,9.28
2019-04-14T10:31:49.461Z,9.47
2019-04-14T10:34:19.031Z,9.62
2019-04-14T10:36:48.612Z,9.65
2019-04-14T10:39:18.097Z,9.87
2019-04-14T10:41:47.635Z,10.27
2019-04-14T10:44:17.230Z,10.35
2019-04-14T10:46:46.820Z,9.97
2019-04-14T10:49:16.372Z,9.33
2019-04-14T10:51:46.106Z,9.35
2019-04-14T10:54:15.783Z,9.35
2019-04-14T10:56:45.337Z,9.63
2019-04-14T10:59:14.871Z,10.03
2019-04-14T11:01:44.441Z,10.04
2019-04-14T11:04:13.983Z,10.02
2019-04-14T11:06:49.824Z,10.32
2019-04-14T11:09:19.358Z,10.50
2019-04-14T11:11:48.907Z,10.25
2019-04-14T11:14:18.447Z,10.13
2019-04-14T11:16:48.015Z,10.19
2019-04-14T11:19:17.550Z,10.16
2019-04-14T11:21:47.260Z,9.74
2019-04-14T11:24:16.793Z,9.77
2019-04-14T11:26:46.334Z,9.87
2019-04-14T11:29:15.902Z,10.29
2019-04-14T11:32:03.606Z,10.34
2019-04-14T11:34:38.585Z,10.25
2019-04-14T11:37:26.065Z,9.95
2019-04-14T11:39:55.570Z,9.97
2019-04-14T11:42:25.216Z,9.94
2019-04-14T11:44:55.662Z,9.98
2019-04-14T11:47:25.181Z,10.01
2019-04-14T11:49:54.719Z,10.19
2019-04-14T11:52:24.258Z,10.41
2019-04-14T11:54:53.829Z,10.65
2019-04-14T11:57:23.376Z,10.41
2019-04-14T12:00:30.235Z,9.70
2019-04-14T12:03:09.153Z,10.06
2019-04-14T12:05:58.041Z,9.96
2019-04-14T12:08:35.110Z,10.18
2019-04-14T12:11:04.736Z,10.11
2019-04-14T12:13:34.286Z,10.28
2019-04-14T12:16:04.321Z,10.02
2019-04-14T12:18:33.954Z,9.91
2019-04-14T12:21:03.487Z,10.06
2019-04-14T12:23:33.087Z,10.31
2019-04-14T12:26:05.697Z,9.74
2019-04-14T12:28:34.458Z,9.81
2019-04-14T12:31:04.493Z,9.93
2019-04-14T12:33:34.258Z,9.66
2019-04-14T12:36:04.555Z,9.67
2019-04-14T12:38:35.104Z,9.45
2019-04-14T12:41:06.280Z,9.57
2019-04-14T12:43:55.363Z,9.48
2019-04-14T12:46:36.223Z,9.45
2019-04-14T12:49:14.428Z,9.91
2019-04-14T12:52:02.968Z,9.91
2019-04-14T12:54:32.580Z,9.50
2019-04-14T12:57:02.121Z,9.62
2019-04-14T12:59:33.317Z,9.65
2019-04-14T13:02:14.114Z,9.58
2019-04-14T13:04:43.697Z,9.78
2019-04-14T13:07:13.246Z,9.77
2019-04-14T13:09:43.670Z,9.54
2019-04-14T13:12:13.198Z,9.64
2019-04-14T13:14:42.750Z,9.56
2019-04-14T13:17:12.314Z,9.52
2019-04-14T13:19:41.937Z,9.69
2019-04-14T13:22:11.463Z,9.95
2019-04-14T13:24:41.049Z,9.83
2019-04-14T13:27:10.576Z,9.64
2019-04-14T13:29:40.158Z,9.81
2019-04-14T13:32:09.676Z,9.75
2019-04-14T13:34:39.202Z,9.49
2019-04-14T13:37:08.793Z,9.36
2019-04-14T13:39:39.122Z,9.25
2019-04-14T13:42:08.627Z,9.21
2019-04-14T13:44:38.173Z,9.45
2019-04-14T13:47:07.718Z,9.05
2019-04-14T13:49:38.301Z,8.90
2019-04-14T13:52:07.922Z,9.02
2019-04-14T13:54:37.482Z,9.20
2019-04-14T13:57:07.057Z,9.29
2019-04-14T13:59:36.611Z,8.98
2019-04-14T14:02:06.249Z,8.98
2019-04-14T14:04:35.791Z,9.27
2019-04-14T14:07:05.967Z,8.85
2019-04-14T14:09:36.493Z,8.80
2019-04-14T14:12:16.949Z,8.90
2019-04-14T14:15:01.449Z,8.89
2019-04-14T14:17:44.777Z,8.67
2019-04-14T14:20:20.966Z,8.77
2019-04-14T14:23:08.334Z,8.56
2019-04-14T14:25:45.673Z,8.69
2019-04-14T14:28:15.217Z,8.86
2019-04-14T14:30:45.743Z,8.72
2019-04-14T14:33:15.270Z,8.83
2019-04-14T14:35:45.811Z,8.82
2019-04-14T14:38:15.352Z,9.04
2019-04-14T14:40:45.003Z,8.96
2019-04-14T14:43:14.632Z,9.13
2019-04-14T14:45:50.625Z,9.02
2019-04-14T14:48:24.581Z,9.23
2019-04-14T14:51:16.003Z,9.10
2019-04-14T14:53:47.349Z,8.97
2019-04-14T14:56:16.912Z,9.10
2019-04-14T14:58:46.462Z,9.20
2019-04-14T15:01:16.000Z,9.33
2019-04-14T15:03:45.646Z,9.37
2019-04-14T15:06:15.178Z,9.06
2019-04-14T15:08:44.741Z,8.99
2019-04-14T15:11:14.367Z,8.97
2019-04-14T15:13:43.981Z,9.19
2019-04-14T15:16:13.581Z,9.26
2019-04-14T15:18:45.144Z,9.21
2019-04-14T15:21:14.723Z,9.38
2019-04-14T15:23:45.348Z,9.24
2019-04-14T15:26:14.862Z,8.99
2019-04-14T15:28:44.381Z,8.71
2019-04-14T15:31:13.990Z,8.59
2019-04-14T15:33:43.504Z,8.76
2019-04-14T15:36:13.113Z,9.08
2019-04-14T15:38:42.638Z,9.08
2019-04-14T15:41:12.147Z,8.85
2019-04-14T15:43:41.723Z,9.05
2019-04-14T15:46:11.226Z,9.01
2019-04-14T15:48:40.754Z,9.33
2019-04-14T15:51:10.276Z,9.25
2019-04-14T15:53:39.862Z,9.31
2019-04-14T15:56:11.076Z,9.26
2019-04-14T15:58:51.166Z,9.32
2019-04-14T16:01:51.686Z,9.01
2019-04-14T16:04:25.344Z,9.13
2019-04-14T16:07:29.067Z,8.96
2019-04-14T16:10:04.722Z,8.58
2019-04-14T16:12:43.213Z,8.89
2019-04-14T16:15:24.770Z,9.02
2019-04-14T16:18:09.205Z,9.06
2019-04-14T16:20:40.562Z,9.02
2019-04-14T16:23:10.071Z,8.99
2019-04-14T16:26:01.513Z,8.94
2019-04-14T16:28:35.909Z,8.54
2019-04-14T16:31:33.800Z,8.63
2019-04-14T16:34:11.816Z,8.79
2019-04-14T16:36:42.363Z,8.82
2019-04-14T16:39:12.075Z,8.71
2019-04-14T16:41:42.806Z,8.61
2019-04-14T16:44:12.348Z,8.63
2019-04-14T16:46:41.927Z,8.85
2019-04-14T16:49:11.483Z,8.97
2019-04-14T16:52:00.126Z,9.11
2019-04-14T16:54:51.418Z,8.77
2019-04-14T16:57:42.991Z,8.86
2019-04-14T17:00:15.221Z,8.81
2019-04-14T17:02:45.221Z,8.82
2019-04-14T17:05:14.807Z,8.92
2019-04-14T17:07:44.367Z,8.76
2019-04-14T17:10:13.931Z,8.78
2019-04-14T17:12:43.480Z,8.80
2019-04-14T17:15:36.454Z,9.00
2019-04-14T17:18:15.301Z,9.00
2019-04-14T17:21:02.882Z,8.90
2019-04-14T17:23:55.085Z,8.94
2019-04-14T17:26:49.679Z,8.92
2019-04-14T17:29:41.541Z,9.16
2019-04-14T17:32:19.958Z,9.01
2019-04-14T17:35:17.496Z,9.08
2019-04-14T17:37:52.025Z,9.02
2019-04-14T17:40:32.772Z,9.05
2019-04-14T17:43:15.400Z,8.88
2019-04-14T17:45:51.857Z,8.77
2019-04-14T17:48:43.452Z,8.85
2019-04-14T17:51:21.261Z,8.89
2019-04-14T17:53:59.700Z,8.68
2019-04-14T17:56:32.836Z,8.76
2019-04-14T17:59:14.661Z,8.56
2019-04-14T18:02:09.306Z,8.48
2019-04-14T18:04:44.596Z,8.63
2019-04-14T18:07:20.047Z,8.71
2019-04-14T18:10:20.611Z,8.87
2019-04-14T18:13:28.441Z,8.77
2019-04-14T18:16:03.320Z,8.98
2019-04-14T18:18:43.002Z,8.93
2019-04-14T18:21:12.590Z,9.05
2019-04-14T18:23:42.125Z,9.00
2019-04-14T18:26:11.679Z,9.09
2019-04-14T18:28:48.744Z,9.14
2019-04-14T18:31:41.693Z,9.20
2019-04-14T18:34:17.048Z,9.15
2019-04-14T18:36:54.757Z,9.12
2019-04-14T18:39:46.424Z,9.15
2019-04-14T18:42:22.751Z,9.16
2019-04-14T18:45:09.983Z,9.12
2019-04-14T18:47:48.204Z,9.23
2019-04-14T18:50:22.896Z,9.43
2019-04-14T18:53:02.257Z,9.41
2019-04-14T18:55:56.228Z,9.38
2019-04-14T18:58:40.369Z,9.48
2019-04-14T19:01:16.425Z,9.51
2019-04-14T19:03:46.099Z,9.59
2019-04-14T19:06:16.619Z,9.65
2019-04-14T19:08:46.176Z,9.69
2019-04-14T19:11:36.221Z,9.75
2019-04-14T19:14:06.254Z,9.76
2019-04-14T19:16:41.946Z,9.87
2019-04-14T19:19:11.535Z,9.92
2019-04-14T19:21:41.095Z,9.98
2019-04-14T19:24:10.648Z,10.06
2019-04-14T19:26:40.207Z,10.11
2019-04-14T19:29:09.758Z,10.14
2019-04-14T19:31:39.286Z,10.14
2019-04-14T19:34:08.902Z,10.16
2019-04-14T19:36:38.436Z,10.18
2019-04-14T19:39:09.625Z,10.23
2019-04-14T19:41:39.733Z,10.13
2019-04-14T19:44:09.265Z,10.13
2019-04-14T19:46:38.909Z,10.07
2019-04-14T19:49:08.761Z,10.09
2019-04-14T19:51:38.309Z,10.12
2019-04-14T19:54:08.018Z,10.15
2019-04-14T19:56:37.670Z,10.20
2019-04-14T19:59:07.240Z,10.06
2019-04-14T20:01:36.859Z,10.08
2019-04-14T20:04:06.469Z,10.11
2019-04-14T20:06:36.117Z,10.12
2019-04-14T20:09:06.923Z,10.19
2019-04-14T20:11:37.134Z,10.16
2019-04-14T20:14:06.693Z,10.21
2019-04-14T20:16:52.136Z,10.22
2019-04-14T20:19:39.509Z,10.20
2019-04-14T20:22:28.160Z,10.20
2019-04-14T20:25:03.777Z,10.13
2019-04-14T20:27:37.321Z,10.16
2019-04-14T20:30:10.877Z,10.08
2019-04-14T20:32:41.542Z,10.06
2019-04-14T20:35:11.186Z,10.09
2019-04-14T20:37:40.775Z,10.11
2019-04-14T20:40:10.501Z,10.09
2019-04-14T20:42:40.078Z,10.10
2019-04-14T20:45:11.449Z,10.25
2019-04-14T20:47:41.059Z,10.27
2019-04-14T20:50:10.608Z,10.29
2019-04-14T20:52:40.263Z,10.27
2019-04-14T20:55:09.894Z,10.26
2019-04-14T20:57:39.428Z,10.23
2019-04-14T21:00:10.032Z,10.24
2019-04-14T21:02:59.493Z,10.20
2019-04-14T21:05:57.129Z,10.26
2019-04-14T21:08:47.006Z,10.31
2019-04-14T21:11:23.469Z,10.28
2019-04-14T21:14:10.902Z,10.20
2019-04-14T21:17:04.360Z,10.19
2019-04-14T21:19:47.688Z,10.14
2019-04-14T21:22:34.547Z,10.16
2019-04-14T21:25:18.244Z,10.20
2019-04-14T21:28:09.867Z,10.22
2019-04-14T21:30:58.432Z,10.14
2019-04-14T21:33:47.032Z,10.02
2019-04-14T21:36:21.197Z,9.88
2019-04-14T21:39:19.718Z,9.71
2019-04-14T21:41:50.840Z,9.58
2019-04-14T21:44:20.398Z,9.62
2019-04-14T21:46:49.928Z,9.66
2019-04-14T21:49:20.439Z,9.62
2019-04-14T21:52:06.053Z,9.67
2019-04-14T21:54:35.648Z,9.75
2019-04-14T21:57:24.298Z,9.82
2019-04-14T22:00:21.991Z,9.81
2019-04-14T22:03:10.848Z,9.74
2019-04-14T22:05:45.815Z,9.69
2019-04-14T22:08:25.141Z,9.74
2019-04-14T22:10:59.409Z,9.86
2019-04-14T22:13:28.943Z,10.00
2019-04-14T22:15:58.552Z,10.03
2019-04-14T22:18:28.095Z,10.11
2019-04-14T22:20:57.687Z,10.19
2019-04-14T22:23:27.226Z,10.21
2019-04-14T22:25:56.835Z,10.25
2019-04-14T22:28:26.359Z,10.22
2019-04-14T22:30:55.898Z,10.23
2019-04-14T22:33:25.436Z,10.23
2019-04-14T22:35:54.968Z,10.24
2019-04-14T22:38:24.477Z,10.19
2019-04-14T22:40:54.018Z,10.14
2019-04-14T22:43:23.621Z,10.17
2019-04-14T22:45:53.170Z,10.15
2019-04-14T22:48:24.244Z,10.13
2019-04-14T22:50:53.837Z,10.16
2019-04-14T22:53:23.384Z,10.20
2019-04-14T22:55:52.954Z,10.14
2019-04-14T22:58:22.487Z,10.18
2019-04-14T23:00:56.288Z,10.22
2019-04-14T23:03:48.120Z,10.22
2019-04-14T23:06:51.941Z,10.22
2019-04-14T23:09:32.147Z,10.13
2019-04-14T23:12:11.593Z,10.07
2019-04-14T23:14:50.915Z,10.00
2019-04-14T23:17:28.229Z,10.04
2019-04-14T23:20:01.838Z,10.12
2019-04-14T23:22:42.793Z,10.12
2019-04-14T23:25:12.431Z,10.16
2019-04-14T23:27:42.002Z,10.14
2019-04-14T23:30:11.772Z,10.11
2019-04-14T23:32:41.434Z,10.20
2019-04-14T23:35:11.112Z,10.20
2019-04-14T23:37:43.565Z,10.21
2019-04-14T23:40:13.316Z,10.23
2019-04-14T23:42:42.851Z,10.19
2019-04-14T23:45:12.537Z,10.11
2019-04-14T23:47:42.149Z,10.14
2019-04-14T23:50:13.594Z,10.18
2019-04-14T23:52:43.208Z,10.12
2019-04-14T23:55:12.884Z,10.18
2019-04-14T23:57:42.430Z,10.06
